Time;durP1;ratioP1;P1;durP2;ratioP2;P2;SDS_P1;SDS_P2;PMS_P1;PMS_P2;Temp;Humidity;BMP_temperature;BMP_pressure;BME280_temperature;BME280_humidity;BME280_pressure;Samples;Min_cycle;Max_cycle;Signal;HPM_P1;HPM_P2
2021/01/18 00:02:12;;;;;;;39.47;16.00;;;6.70;99.90;;;;;;5052151;28;20392;-71
2021/01/18 00:04:38;;;;;;;35.50;16.92;;;6.60;99.90;;;;;;5050518;28;20032;-71
2021/01/18 00:07:06;;;;;;;39.65;15.05;;;6.60;99.90;;;;;;5047524;28;20025;-71
2021/01/18 00:09:31;;;;;;;51.47;20.98;;;6.60;99.90;;;;;;5029374;28;20048;-71
2021/01/18 00:11:57;;;;;;;57.65;27.13;;;6.50;99.90;;;;;;5050631;28;20030;-71
2021/01/18 00:14:23;;;;;;;46.30;19.38;;;6.60;99.90;;;;;;5049806;28;20077;-71
2021/01/18 00:16:50;;;;;;;37.20;16.38;;;6.60;99.90;;;;;;5051992;28;20482;-71
2021/01/18 00:19:16;;;;;;;38.70;17.73;;;6.60;99.90;;;;;;5029821;28;20095;-71
2021/01/18 00:21:45;;;;;;;42.67;16.13;;;6.60;99.90;;;;;;5047588;28;20025;-71
2021/01/18 00:24:12;;;;;;;44.05;16.65;;;6.60;99.90;;;;;;5051591;28;20056;-71
2021/01/18 00:26:37;;;;;;;42.80;16.55;;;6.60;99.90;;;;;;5051763;28;20380;-71
2021/01/18 00:29:03;;;;;;;44.15;17.95;;;6.60;99.90;;;;;;5049496;28;20111;-71
2021/01/18 00:31:28;;;;;;;32.00;16.45;;;6.60;99.90;;;;;;5027066;28;20026;-71
2021/01/18 00:33:54;;;;;;;39.55;14.77;;;6.60;99.90;;;;;;5045689;28;20036;-71
2021/01/18 00:36:20;;;;;;;44.10;16.50;;;6.60;99.90;;;;;;5050447;28;20053;-71
2021/01/18 00:38:45;;;;;;;33.63;14.93;;;6.60;99.90;;;;;;5047189;28;20481;-71
2021/01/18 00:41:11;;;;;;;42.05;16.33;;;6.60;99.90;;;;;;5046979;28;20044;-71
2021/01/18 00:43:36;;;;;;;33.45;16.02;;;6.60;99.90;;;;;;5043809;28;20025;-71
2021/01/18 00:46:02;;;;;;;39.70;16.45;;;6.60;99.90;;;;;;5051133;28;20507;-71
2021/01/18 00:48:28;;;;;;;39.00;15.75;;;6.50;99.90;;;;;;5051910;28;20041;-71
2021/01/18 00:50:53;;;;;;;34.70;15.70;;;6.50;99.90;;;;;;5051462;28;20025;-72
2021/01/18 00:53:19;;;;;;;31.17;15.38;;;6.50;99.90;;;;;;5046630;28;20075;-71
2021/01/18 00:55:45;;;;;;;32.13;15.43;;;6.50;99.90;;;;;;5051930;28;20021;-71
2021/01/18 00:58:12;;;;;;;33.83;15.50;;;6.40;99.90;;;;;;5051725;28;20021;-71
2021/01/18 01:00:39;;;;;;;39.88;15.63;;;6.50;99.90;;;;;;5046054;28;20028;-71
2021/01/18 01:03:05;;;;;;;37.72;16.80;;;6.50;99.90;;;;;;5050830;28;20013;-71
2021/01/18 01:05:31;;;;;;;34.33;15.82;;;6.50;99.90;;;;;;5030286;28;20072;-71
2021/01/18 01:07:59;;;;;;;35.60;14.88;;;6.50;99.90;;;;;;5047259;28;20041;-71
2021/01/18 01:10:35;;;;;;;32.22;14.40;;;6.50;99.90;;;;;;5046824;28;20143;-71
2021/01/18 01:13:07;;;;;;;29.92;14.45;;;6.40;99.90;;;;;;5045711;28;20041;-71
2021/01/18 01:15:34;;;;;;;35.40;15.02;;;6.50;99.90;;;;;;5049545;28;20017;-71
2021/01/18 01:18:01;;;;;;;33.63;15.77;;;6.50;99.90;;;;;;5049038;28;20067;-71
2021/01/18 01:20:26;;;;;;;33.13;15.18;;;6.40;99.90;;;;;;5045728;28;20041;-71
2021/01/18 01:22:53;;;;;;;34.85;15.20;;;6.40;99.90;;;;;;5048669;28;20078;-71
2021/01/18 01:25:21;;;;;;;29.60;14.70;;;6.40;99.90;;;;;;5043095;28;20041;-71
2021/01/18 01:27:47;;;;;;;35.38;16.25;;;6.40;99.90;;;;;;5044246;28;20021;-71
2021/01/18 01:30:19;;;;;;;33.45;15.70;;;6.40;99.90;;;;;;5049820;28;20021;-71
2021/01/18 01:32:47;;;;;;;34.05;15.27;;;6.40;99.90;;;;;;5047173;28;20017;-72
2021/01/18 01:35:14;;;;;;;41.05;16.80;;;6.40;99.90;;;;;;5032687;28;20099;-71
2021/01/18 01:37:40;;;;;;;40.05;16.88;;;6.30;99.90;;;;;;5046199;28;20028;-71
2021/01/18 01:40:08;;;;;;;33.33;15.30;;;6.30;99.90;;;;;;5044078;28;20040;-73
2021/01/18 01:42:34;;;;;;;34.33;15.48;;;6.20;99.90;;;;;;5048853;28;20067;-71
2021/01/18 01:44:59;;;;;;;28.33;14.57;;;6.20;99.90;;;;;;5050490;28;20419;-71
2021/01/18 01:47:38;;;;;;;36.13;15.80;;;6.20;99.90;;;;;;5041942;28;20025;-71
2021/01/18 01:50:10;;;;;;;42.40;16.15;;;6.10;99.90;;;;;;5047095;28;20021;-71
2021/01/18 01:52:42;;;;;;;34.00;15.90;;;6.20;99.90;;;;;;5048224;28;20480;-71
2021/01/18 01:55:14;;;;;;;38.45;15.93;;;6.20;99.90;;;;;;5047954;28;20025;-71
2021/01/18 01:57:40;;;;;;;40.38;15.77;;;6.10;99.90;;;;;;5044671;28;20017;-71
2021/01/18 02:00:06;;;;;;;35.10;15.25;;;6.10;99.90;;;;;;5048309;28;20048;-71
2021/01/18 02:02:31;;;;;;;37.17;14.55;;;6.00;99.90;;;;;;5048973;28;20017;-71
2021/01/18 02:04:57;;;;;;;39.92;16.33;;;6.00;99.90;;;;;;5046781;28;20051;-71
2021/01/18 02:07:28;;;;;;;40.75;15.38;;;6.00;99.90;;;;;;5046190;28;20029;-71
2021/01/18 02:09:56;;;;;;;36.42;15.20;;;6.00;99.90;;;;;;5048593;28;20029;-71
2021/01/18 02:12:24;;;;;;;36.22;16.10;;;6.00;99.90;;;;;;5046303;28;20484;-71
2021/01/18 02:15:22;;;;;;;32.00;16.52;;;6.00;99.90;;;;;;5029999;28;20045;-71
2021/01/18 02:18:15;;;;;;;40.03;15.43;;;6.00;99.90;;;;;;5038181;28;20455;-71
2021/01/18 02:20:50;;;;;;;39.40;14.68;;;6.00;99.90;;;;;;5049394;28;20473;-71
2021/01/18 02:23:15;;;;;;;33.78;15.00;;;5.90;99.90;;;;;;5044720;28;20025;-71
2021/01/18 02:25:50;;;;;;;31.52;15.57;;;5.90;99.90;;;;;;5047598;28;20371;-71
2021/01/18 02:28:53;;;;;;;37.00;14.93;;;5.90;99.90;;;;;;5048168;28;20476;-71
2021/01/18 02:31:46;;;;;;;29.58;13.40;;;5.90;99.90;;;;;;5046923;28;20430;-71
2021/01/18 02:34:15;;;;;;;25.40;12.73;;;5.90;99.90;;;;;;5041989;28;20094;-72
2021/01/18 02:37:01;;;;;;;29.95;13.68;;;5.90;99.90;;;;;;5051331;28;20017;-71
2021/01/18 02:39:49;;;;;;;38.10;13.90;;;5.90;99.90;;;;;;5023304;28;20409;-71
2021/01/18 02:42:26;;;;;;;43.50;14.30;;;5.90;99.90;;;;;;5046394;28;20029;-71
2021/01/18 02:44:57;;;;;;;41.50;13.60;;;5.80;99.90;;;;;;5042650;28;20513;-71
2021/01/18 02:47:25;;;;;;;37.60;14.07;;;5.70;99.90;;;;;;5046454;28;20035;-71
2021/01/18 02:49:52;;;;;;;31.23;14.38;;;5.80;99.90;;;;;;5048882;28;20025;-73
2021/01/18 02:52:18;;;;;;;31.65;13.20;;;5.80;99.90;;;;;;5049759;28;20107;-73
2021/01/18 02:54:43;;;;;;;39.67;14.90;;;5.80;99.90;;;;;;5046500;28;20099;-73
2021/01/18 02:57:15;;;;;;;36.72;15.00;;;5.80;99.90;;;;;;5050658;28;20108;-73
2021/01/18 02:59:44;;;;;;;40.28;14.98;;;5.80;99.90;;;;;;5042750;28;20029;-73
2021/01/18 03:02:18;;;;;;;33.05;14.30;;;5.80;99.90;;;;;;5050155;28;20436;-72
2021/01/18 03:05:12;;;;;;;35.25;14.05;;;5.60;99.90;;;;;;5049263;28;20035;-73
2021/01/18 03:07:59;;;;;;;34.45;16.30;;;5.70;99.90;;;;;;5022457;28;20132;-73
2021/01/18 03:10:47;;;;;;;30.10;14.98;;;5.70;99.90;;;;;;5048572;28;20048;-73
2021/01/18 03:13:26;;;;;;;37.78;16.98;;;5.60;99.90;;;;;;5016936;28;20045;-73
2021/01/18 03:15:58;;;;;;;40.15;16.95;;;5.60;99.90;;;;;;5035776;28;20014;-73
2021/01/18 03:18:25;;;;;;;44.30;17.10;;;5.60;99.90;;;;;;5027393;28;20033;-74
2021/01/18 03:20:50;;;;;;;42.75;16.23;;;5.70;99.90;;;;;;5049062;28;20081;-72
2021/01/18 03:23:16;;;;;;;44.47;14.93;;;5.70;99.90;;;;;;5048331;28;20045;-73
2021/01/18 03:25:55;;;;;;;40.08;15.85;;;5.70;99.90;;;;;;5039448;28;20516;-72
2021/01/18 03:28:23;;;;;;;36.85;16.60;;;5.70;99.90;;;;;;5043939;28;20507;-72
2021/01/18 03:30:49;;;;;;;42.45;15.68;;;5.80;99.90;;;;;;5051097;28;20021;-74
2021/01/18 03:33:16;;;;;;;38.63;16.85;;;5.70;99.90;;;;;;5047831;28;20017;-74
2021/01/18 03:35:42;;;;;;;40.58;15.52;;;5.70;99.90;;;;;;5039801;28;20021;-74
2021/01/18 03:38:08;;;;;;;37.78;15.50;;;5.70;99.90;;;;;;5047549;28;20500;-73
2021/01/18 03:40:34;;;;;;;46.42;16.63;;;5.70;99.90;;;;;;5051174;28;20063;-73
2021/01/18 03:43:03;;;;;;;45.65;18.20;;;5.70;99.90;;;;;;5040994;28;20037;-73
2021/01/18 03:45:31;;;;;;;38.42;15.10;;;5.60;99.90;;;;;;5028566;28;20029;-72
2021/01/18 03:47:56;;;;;;;46.67;14.68;;;5.60;99.90;;;;;;5047266;28;20527;-72
2021/01/18 03:50:22;;;;;;;43.20;14.95;;;5.60;99.90;;;;;;5048400;28;20037;-72
2021/01/18 03:52:49;;;;;;;34.08;15.00;;;5.60;99.90;;;;;;5046906;28;20059;-72
2021/01/18 03:55:15;;;;;;;35.22;14.20;;;5.60;99.90;;;;;;5048667;28;20017;-73
2021/01/18 03:57:44;;;;;;;38.13;15.85;;;5.60;99.90;;;;;;5053384;28;20477;-73
2021/01/18 04:00:10;;;;;;;34.70;16.10;;;5.60;99.90;;;;;;5043098;28;20043;-73
2021/01/18 04:02:35;;;;;;;40.42;15.32;;;5.60;99.90;;;;;;5050169;28;20017;-73
2021/01/18 04:05:01;;;;;;;47.92;16.73;;;5.60;99.90;;;;;;5053585;28;20493;-74
2021/01/18 04:07:27;;;;;;;43.83;17.25;;;5.70;99.90;;;;;;5051201;28;20540;-73
2021/01/18 04:09:52;;;;;;;39.08;17.55;;;5.70;99.90;;;;;;5053029;28;20029;-73
2021/01/18 04:12:18;;;;;;;35.50;16.02;;;5.70;99.90;;;;;;5050148;28;20592;-73
2021/01/18 04:14:45;;;;;;;38.20;17.63;;;5.70;99.90;;;;;;5043538;28;20104;-73
2021/01/18 04:17:11;;;;;;;43.53;18.98;;;5.70;99.90;;;;;;5048284;28;20067;-72
2021/01/18 04:19:37;;;;;;;49.40;21.25;;;5.80;99.90;;;;;;5052709;28;20041;-72
2021/01/18 04:22:06;;;;;;;44.78;17.15;;;5.70;99.90;;;;;;5049974;28;20485;-71
2021/01/18 04:24:35;;;;;;;43.05;17.35;;;5.70;99.90;;;;;;5049671;28;20099;-71
2021/01/18 04:27:01;;;;;;;44.47;17.60;;;5.70;99.90;;;;;;5053961;28;20099;-74
2021/01/18 04:29:27;;;;;;;47.08;17.85;;;5.70;99.90;;;;;;5056817;28;20060;-73
2021/01/18 04:31:53;;;;;;;56.67;17.80;;;5.70;99.90;;;;;;5052599;28;20522;-71
2021/01/18 04:34:19;;;;;;;54.97;19.25;;;5.70;99.90;;;;;;5043827;28;20035;-73
2021/01/18 04:36:45;;;;;;;40.58;17.50;;;5.70;99.90;;;;;;5047821;28;20021;-73
2021/01/18 04:39:11;;;;;;;42.03;17.05;;;5.60;99.90;;;;;;5048798;28;20076;-71
2021/01/18 04:41:40;;;;;;;44.28;17.85;;;5.60;99.90;;;;;;5048674;28;20102;-73
2021/01/18 04:44:07;;;;;;;49.45;17.75;;;5.70;99.90;;;;;;5052428;28;20029;-71
2021/01/18 04:46:38;;;;;;;34.97;15.80;;;5.70;99.90;;;;;;5051835;28;20116;-70
2021/01/18 04:49:04;;;;;;;38.65;15.65;;;5.60;99.90;;;;;;5053046;28;20064;-70
2021/01/18 04:51:39;;;;;;;48.30;19.83;;;5.60;99.90;;;;;;5051830;28;20456;-71
2021/01/18 04:54:19;;;;;;;47.38;17.92;;;5.60;99.90;;;;;;5049519;28;20037;-71
2021/01/18 04:57:12;;;;;;;48.75;18.13;;;5.50;99.90;;;;;;5039672;28;20366;-70
2021/01/18 04:59:37;;;;;;;43.08;17.70;;;5.50;99.90;;;;;;5049336;28;20039;-70
2021/01/18 05:02:09;;;;;;;47.80;18.15;;;5.50;99.90;;;;;;5054075;28;20108;-70
2021/01/18 05:04:40;;;;;;;50.20;20.88;;;5.50;99.90;;;;;;5048081;28;20029;-71
2021/01/18 05:07:42;;;;;;;49.45;18.30;;;5.50;99.90;;;;;;5044812;28;20025;-71
2021/01/18 05:10:12;;;;;;;49.50;19.10;;;5.50;99.90;;;;;;5025423;28;20041;-71
2021/01/18 05:12:42;;;;;;;52.30;18.33;;;5.50;99.90;;;;;;5046239;28;20485;-71
2021/01/18 05:15:14;;;;;;;43.97;18.13;;;5.50;99.90;;;;;;5050296;28;20036;-71
2021/01/18 05:17:43;;;;;;;51.40;18.33;;;5.40;99.90;;;;;;5051730;28;20366;-70
2021/01/18 05:20:10;;;;;;;45.33;18.13;;;5.40;99.90;;;;;;5047337;28;20021;-70
2021/01/18 05:22:36;;;;;;;52.15;18.38;;;5.50;99.90;;;;;;5051029;28;20021;-71
2021/01/18 05:25:06;;;;;;;53.58;18.98;;;5.50;99.90;;;;;;5047977;28;20357;-71
2021/01/18 05:27:32;;;;;;;48.72;18.67;;;5.50;99.90;;;;;;5046033;28;20358;-71
2021/01/18 05:29:57;;;;;;;47.38;18.67;;;5.50;99.90;;;;;;5049530;28;20045;-71
2021/01/18 05:32:24;;;;;;;45.72;18.25;;;5.50;99.90;;;;;;5049845;28;20095;-71
2021/01/18 05:34:52;;;;;;;46.75;18.30;;;5.40;99.90;;;;;;5049528;28;20055;-70
2021/01/18 05:37:18;;;;;;;45.80;17.33;;;5.40;99.90;;;;;;5027446;28;20075;-71
2021/01/18 05:39:43;;;;;;;52.25;18.98;;;5.40;99.90;;;;;;5051843;28;20041;-71
2021/01/18 05:42:20;;;;;;;46.75;18.90;;;5.50;99.90;;;;;;5050259;28;20029;-71
2021/01/18 05:44:46;;;;;;;56.28;20.13;;;5.50;99.90;;;;;;5048960;28;20021;-70
2021/01/18 05:47:14;;;;;;;41.60;17.58;;;5.50;99.90;;;;;;5051019;28;20029;-71
2021/01/18 05:49:48;;;;;;;46.70;17.80;;;5.60;99.90;;;;;;5049025;28;20017;-70
2021/01/18 05:52:28;;;;;;;51.72;18.17;;;5.60;99.90;;;;;;5051052;28;20029;-71
2021/01/18 05:55:14;;;;;;;48.33;17.13;;;5.70;99.90;;;;;;5046964;28;20020;-71
2021/01/18 05:57:47;;;;;;;43.55;17.65;;;5.70;99.90;;;;;;5046989;28;20024;-71
2021/01/18 06:00:22;;;;;;;49.97;17.73;;;5.70;99.90;;;;;;5051193;28;20197;-70
2021/01/18 06:02:49;;;;;;;41.65;17.23;;;5.60;99.90;;;;;;5046542;28;20351;-70
2021/01/18 06:05:15;;;;;;;50.75;16.80;;;5.60;99.90;;;;;;5028838;28;20026;-71
2021/01/18 06:07:41;;;;;;;45.92;16.63;;;5.60;99.90;;;;;;5050096;28;20108;-71
2021/01/18 06:10:07;;;;;;;48.08;16.83;;;5.40;99.90;;;;;;5051213;28;20100;-71
2021/01/18 06:12:34;;;;;;;41.78;18.00;;;5.40;99.90;;;;;;5046012;28;20144;-70
2021/01/18 06:15:05;;;;;;;54.78;18.67;;;5.40;99.90;;;;;;5029756;28;20035;-71
2021/01/18 06:17:31;;;;;;;51.50;18.85;;;5.40;99.90;;;;;;5048365;28;20039;-70
2021/01/18 06:19:59;;;;;;;38.13;16.95;;;5.40;99.90;;;;;;5047174;28;20484;-71
2021/01/18 06:22:28;;;;;;;40.15;17.10;;;5.40;99.90;;;;;;5049903;28;20354;-70
2021/01/18 06:25:09;;;;;;;55.15;17.77;;;5.40;99.90;;;;;;5045986;28;20115;-70
2021/01/18 06:27:35;;;;;;;57.70;22.73;;;5.40;99.90;;;;;;5050570;28;20024;-70
2021/01/18 06:30:02;;;;;;;50.28;18.58;;;5.40;99.90;;;;;;5047105;28;20032;-70
2021/01/18 06:32:30;;;;;;;55.17;19.00;;;5.30;99.90;;;;;;5048634;28;20502;-70
2021/01/18 06:35:01;;;;;;;53.30;20.40;;;5.30;99.90;;;;;;5048398;28;20033;-70
2021/01/18 06:37:31;;;;;;;52.13;18.70;;;5.30;99.90;;;;;;5049573;28;20092;-71
2021/01/18 06:40:02;;;;;;;54.20;18.33;;;5.30;99.90;;;;;;5025873;28;20056;-70
2021/01/18 06:42:28;;;;;;;50.92;17.75;;;5.30;99.90;;;;;;5044228;28;20094;-71
2021/01/18 06:44:55;;;;;;;57.38;18.85;;;5.30;99.90;;;;;;5041894;28;20029;-70
2021/01/18 06:47:29;;;;;;;49.08;18.73;;;5.30;99.90;;;;;;5048690;28;20017;-71
2021/01/18 06:50:06;;;;;;;53.33;19.13;;;5.30;99.90;;;;;;5047121;28;20037;-71
2021/01/18 06:52:33;;;;;;;53.20;19.70;;;5.30;99.90;;;;;;5041578;28;20477;-71
2021/01/18 06:55:12;;;;;;;48.55;19.92;;;5.30;99.90;;;;;;5047701;28;20082;-70
2021/01/18 06:57:46;;;;;;;55.55;20.75;;;5.30;99.90;;;;;;5040307;28;20104;-70
2021/01/18 07:00:13;;;;;;;50.67;20.83;;;5.30;99.90;;;;;;5049454;28;20496;-70
2021/01/18 07:02:39;;;;;;;52.83;22.98;;;5.30;99.90;;;;;;5042960;28;20068;-71
2021/01/18 07:05:10;;;;;;;58.65;21.42;;;5.30;99.90;;;;;;5047679;28;20036;-70
2021/01/18 07:07:37;;;;;;;55.10;20.58;;;5.30;99.90;;;;;;5046245;28;20021;-71
2021/01/18 07:10:11;;;;;;;51.45;22.70;;;5.40;99.90;;;;;;5044884;28;20060;-70
2021/01/18 07:12:37;;;;;;;48.95;21.90;;;5.30;99.90;;;;;;5047026;28;20029;-70
2021/01/18 07:15:10;;;;;;;52.28;22.05;;;5.30;99.90;;;;;;5048462;28;20033;-71
2021/01/18 07:17:55;;;;;;;57.53;22.95;;;5.30;99.90;;;;;;5049691;28;20307;-71
2021/01/18 07:20:28;;;;;;;48.80;21.42;;;5.30;99.90;;;;;;5040499;28;20497;-70
2021/01/18 07:22:56;;;;;;;;;;;5.20;99.90;;;;;;5049982;28;20025;-71
2021/01/18 07:25:23;;;;;;;47.30;20.00;;;5.20;99.90;;;;;;5044625;28;19987;-70
2021/01/18 07:27:52;;;;;;;50.65;19.80;;;5.20;99.90;;;;;;5044253;28;20079;-71
2021/01/18 07:30:18;;;;;;;55.67;21.13;;;5.30;99.90;;;;;;5052115;28;20051;-71
2021/01/18 07:32:43;;;;;;;56.60;22.58;;;5.30;99.90;;;;;;5051698;28;20024;-71
2021/01/18 07:35:11;;;;;;;49.33;20.77;;;5.30;99.90;;;;;;5047463;28;20029;-70
2021/01/18 07:37:36;;;;;;;50.63;22.63;;;5.30;99.90;;;;;;5047456;28;20460;-71
2021/01/18 07:40:10;;;;;;;55.63;21.50;;;5.20;99.90;;;;;;5034547;28;20128;-71
2021/01/18 07:42:36;;;;;;;66.50;20.98;;;5.10;99.90;;;;;;5051280;28;20068;-71
2021/01/18 07:45:15;;;;;;;48.00;22.02;;;5.20;99.90;;;;;;5045671;28;20466;-71
2021/01/18 07:47:55;;;;;;;58.25;22.55;;;5.20;99.90;;;;;;5048817;28;20429;-71
2021/01/18 07:50:34;;;;;;;57.88;22.20;;;5.10;99.90;;;;;;5051340;28;20079;-71
2021/01/18 07:53:03;;;;;;;65.10;24.98;;;5.10;99.90;;;;;;5054508;28;20037;-71
2021/01/18 07:55:29;;;;;;;51.28;21.67;;;5.10;99.90;;;;;;5041467;28;20032;-72
2021/01/18 07:58:30;;;;;;;59.17;22.42;;;5.10;99.90;;;;;;5042940;28;20036;-72
2021/01/18 08:01:07;;;;;;;60.20;21.63;;;5.10;99.90;;;;;;5050236;28;20046;-71
2021/01/18 08:03:32;;;;;;;50.75;19.83;;;5.20;99.90;;;;;;5028836;28;20096;-72
2021/01/18 08:06:03;;;;;;;45.03;19.55;;;5.10;99.90;;;;;;5044825;28;20115;-72
2021/01/18 08:08:29;;;;;;;57.40;21.58;;;5.20;99.90;;;;;;5047851;28;20033;-72
2021/01/18 08:10:59;;;;;;;53.20;21.05;;;5.10;99.90;;;;;;5049539;28;20048;-72
2021/01/18 08:13:43;;;;;;;61.22;21.33;;;5.20;99.90;;;;;;5051138;28;20451;-71
2021/01/18 08:16:27;;;;;;;58.00;20.98;;;5.20;99.90;;;;;;5048433;28;20561;-72
2021/01/18 08:18:58;;;;;;;64.20;19.92;;;5.10;99.90;;;;;;5046111;28;20412;-71
2021/01/18 08:21:33;;;;;;;48.37;18.67;;;5.10;99.90;;;;;;5049862;28;20438;-71
2021/01/18 08:24:28;;;;;;;52.22;20.88;;;5.10;99.90;;;;;;5048552;28;20341;-72
2021/01/18 08:26:56;;;;;;;56.92;22.35;;;5.10;99.90;;;;;;5029243;28;20049;-71
2021/01/18 08:29:50;;;;;;;57.20;21.63;;;5.10;99.90;;;;;;5041257;28;20105;-71
2021/01/18 08:32:22;;;;;;;44.55;19.42;;;5.10;99.90;;;;;;5049595;28;20078;-72
2021/01/18 08:34:59;;;;;;;52.78;20.10;;;5.20;99.90;;;;;;5049030;28;20411;-71
2021/01/18 08:37:29;;;;;;;45.65;20.73;;;5.20;99.90;;;;;;5026346;28;20037;-72
2021/01/18 08:39:56;;;;;;;40.33;18.42;;;5.20;99.90;;;;;;5045248;28;20095;-72
2021/01/18 08:42:30;;;;;;;53.45;18.65;;;5.20;99.90;;;;;;5050202;28;20033;-72
2021/01/18 08:45:08;;;;;;;44.60;18.55;;;5.20;99.90;;;;;;5043812;28;20028;-71
2021/01/18 08:47:47;;;;;;;50.10;17.75;;;5.10;99.90;;;;;;5045901;28;20029;-71
2021/01/18 08:50:33;;;;;;;45.83;18.95;;;5.10;99.90;;;;;;5050129;28;20461;-72
2021/01/18 08:53:00;;;;;;;47.67;18.48;;;5.20;99.90;;;;;;5030811;28;20029;-71
2021/01/18 08:55:29;;;;;;;47.45;17.85;;;5.20;99.90;;;;;;5046404;28;20028;-71
2021/01/18 08:58:05;;;;;;;46.35;18.50;;;5.20;99.90;;;;;;5043714;28;20033;-72
2021/01/18 09:00:36;;;;;;;37.22;15.82;;;5.20;99.90;;;;;;5047673;28;20032;-71
2021/01/18 09:03:02;;;;;;;47.33;17.70;;;5.20;99.90;;;;;;5029104;28;20024;-71
2021/01/18 09:05:28;;;;;;;44.45;16.40;;;5.20;99.90;;;;;;5047366;28;20025;-71
2021/01/18 09:07:54;;;;;;;42.17;14.95;;;5.20;99.90;;;;;;5046902;28;20033;-71
2021/01/18 09:10:23;;;;;;;44.88;16.83;;;5.20;99.90;;;;;;5046286;28;20048;-71
2021/01/18 09:12:50;;;;;;;47.95;16.33;;;5.20;99.90;;;;;;5047054;28;20501;-72
2021/01/18 09:15:20;;;;;;;42.80;16.45;;;5.30;99.90;;;;;;5040414;28;20477;-71
2021/01/18 09:17:47;;;;;;;40.70;16.90;;;5.20;99.90;;;;;;5044178;28;20016;-71
2021/01/18 09:20:14;;;;;;;45.65;14.45;;;5.30;99.90;;;;;;5043538;28;20041;-71
2021/01/18 09:22:41;;;;;;;48.08;15.35;;;5.30;99.90;;;;;;5046697;28;20025;-71
2021/01/18 09:25:08;;;;;;;37.47;14.88;;;5.20;99.90;;;;;;5046123;28;20071;-71
2021/01/18 09:27:35;;;;;;;42.67;17.30;;;5.40;99.90;;;;;;5037621;28;20037;-71
2021/01/18 09:30:09;;;;;;;42.75;14.07;;;5.30;99.90;;;;;;5044957;28;20059;-71
2021/01/18 09:32:36;;;;;;;39.83;15.70;;;5.40;99.90;;;;;;5044963;28;20025;-71
2021/01/18 09:35:14;;;;;;;43.72;15.48;;;5.50;99.90;;;;;;5050249;28;20056;-71
2021/01/18 09:37:44;;;;;;;35.50;12.75;;;5.50;99.90;;;;;;5031676;28;20052;-71
2021/01/18 09:40:11;;;;;;;47.80;14.57;;;5.50;99.90;;;;;;5040868;28;20396;-71
2021/01/18 09:42:37;;;;;;;40.53;14.85;;;5.50;99.90;;;;;;5043479;28;20038;-71
2021/01/18 09:45:05;;;;;;;41.75;13.80;;;5.60;99.90;;;;;;5044748;28;20358;-71
2021/01/18 09:47:32;;;;;;;42.58;14.40;;;5.60;99.90;;;;;;5042739;28;20024;-71
2021/01/18 09:50:11;;;;;;;38.08;13.48;;;5.60;99.90;;;;;;5046109;28;20032;-71
2021/01/18 09:52:48;;;;;;;41.00;13.30;;;5.60;99.90;;;;;;5047149;28;20017;-71
2021/01/18 09:55:20;;;;;;;40.33;12.70;;;5.60;99.90;;;;;;5048434;28;20117;-71
2021/01/18 09:57:57;;;;;;;36.00;12.75;;;5.60;99.90;;;;;;5047954;28;20055;-71
2021/01/18 10:00:26;;;;;;;34.13;12.27;;;5.70;99.90;;;;;;5042927;28;20064;-71
2021/01/18 10:02:54;;;;;;;36.50;12.45;;;5.70;99.90;;;;;;5039312;28;20025;-71
2021/01/18 10:05:28;;;;;;;35.85;13.63;;;5.70;99.90;;;;;;5030622;28;20627;-71
2021/01/18 10:07:55;;;;;;;45.38;13.10;;;5.70;99.90;;;;;;5042001;28;20033;-71
2021/01/18 10:10:20;;;;;;;44.08;15.02;;;5.70;99.90;;;;;;5029380;28;20377;-71
2021/01/18 10:12:52;;;;;;;35.65;13.77;;;5.90;99.90;;;;;;5043608;28;20035;-71
2021/01/18 10:15:28;;;;;;;33.22;12.63;;;5.80;99.90;;;;;;5048525;28;20491;-71
2021/01/18 10:17:55;;;;;;;46.38;14.32;;;5.80;99.90;;;;;;5040848;28;20102;-71
2021/01/18 10:20:23;;;;;;;29.02;13.32;;;5.80;99.90;;;;;;5048932;28;20121;-71
2021/01/18 10:22:49;;;;;;;37.05;12.23;;;5.80;99.90;;;;;;5045736;28;20484;-71
2021/01/18 10:25:15;;;;;;;41.72;13.63;;;5.90;99.90;;;;;;5041422;28;20017;-71
2021/01/18 10:27:52;;;;;;;40.60;13.30;;;5.90;99.90;;;;;;5029114;28;20132;-71
2021/01/18 10:30:21;;;;;;;38.15;14.02;;;5.90;99.90;;;;;;5020817;28;20051;-72
2021/01/18 10:32:49;;;;;;;38.40;12.95;;;6.00;99.90;;;;;;5044427;28;20021;-72
2021/01/18 10:35:26;;;;;;;35.60;13.93;;;6.10;99.90;;;;;;5042443;28;20061;-72
2021/01/18 10:37:53;;;;;;;37.50;12.77;;;6.20;99.90;;;;;;5039986;28;20048;-71
2021/01/18 10:40:22;;;;;;;36.30;12.45;;;6.20;99.90;;;;;;5042837;28;20033;-71
2021/01/18 10:43:02;;;;;;;30.95;11.50;;;6.20;99.90;;;;;;5038332;28;20117;-71
2021/01/18 10:45:28;;;;;;;29.60;12.88;;;6.30;99.90;;;;;;5047534;28;20485;-71
2021/01/18 10:47:59;;;;;;;29.95;11.98;;;6.30;99.90;;;;;;5041831;28;20456;-72
2021/01/18 10:50:29;;;;;;;38.58;12.50;;;6.30;99.90;;;;;;5048429;28;20098;-71
2021/01/18 10:53:09;;;;;;;36.10;12.23;;;6.40;99.90;;;;;;5036174;28;20039;-72
2021/01/18 10:55:36;;;;;;;26.00;11.13;;;6.40;99.90;;;;;;5041091;28;20071;-71
2021/01/18 10:58:02;;;;;;;42.95;13.98;;;6.30;99.90;;;;;;5046482;28;20029;-71
2021/01/18 11:00:29;;;;;;;30.40;12.10;;;6.40;99.90;;;;;;5030794;28;20040;-72
2021/01/18 11:03:03;;;;;;;37.53;12.02;;;6.50;99.90;;;;;;5042309;28;20438;-71
2021/01/18 11:05:30;;;;;;;28.63;11.27;;;6.40;99.90;;;;;;5045784;28;20033;-71
2021/01/18 11:07:58;;;;;;;27.98;10.68;;;6.60;99.90;;;;;;5043672;28;20104;-72
2021/01/18 11:10:25;;;;;;;29.00;10.10;;;6.60;99.90;;;;;;5048074;28;20100;-71
2021/01/18 11:13:03;;;;;;;32.58;10.95;;;6.70;99.90;;;;;;5045166;28;20048;-71
2021/01/18 11:15:34;;;;;;;27.17;9.90;;;6.80;99.90;;;;;;5042811;28;20029;-72
2021/01/18 11:18:00;;;;;;;23.77;9.50;;;6.80;99.90;;;;;;5045943;28;20017;-71
2021/01/18 11:20:27;;;;;;;24.92;9.35;;;6.70;99.90;;;;;;5047283;28;20040;-72
2021/01/18 11:22:53;;;;;;;26.50;9.65;;;6.80;99.90;;;;;;5043393;28;20700;-72
2021/01/18 11:25:19;;;;;;;28.45;9.52;;;6.80;99.90;;;;;;5043360;28;20032;-72
2021/01/18 11:27:45;;;;;;;30.25;9.27;;;6.90;99.90;;;;;;5049639;28;20021;-72
2021/01/18 11:30:11;;;;;;;27.05;9.20;;;6.90;99.90;;;;;;5042789;28;20035;-72
2021/01/18 11:32:37;;;;;;;28.65;9.05;;;6.90;99.90;;;;;;5033972;28;20659;-71
2021/01/18 11:35:03;;;;;;;26.67;8.95;;;7.00;99.90;;;;;;5044891;28;20451;-72
2021/01/18 11:37:29;;;;;;;23.42;9.25;;;7.00;99.90;;;;;;5040196;28;20469;-71
2021/01/18 11:39:55;;;;;;;32.63;10.40;;;7.00;99.90;;;;;;5041394;28;20428;-71
2021/01/18 11:42:20;;;;;;;28.00;8.30;;;7.10;99.90;;;;;;5045772;28;20036;-71
2021/01/18 11:44:46;;;;;;;26.10;8.75;;;7.00;99.90;;;;;;5041917;28;20017;-71
2021/01/18 11:47:11;;;;;;;23.42;8.60;;;7.10;99.90;;;;;;5041175;28;20053;-71
2021/01/18 11:49:37;;;;;;;22.80;8.45;;;7.20;99.90;;;;;;5045588;28;20033;-71
2021/01/18 11:52:03;;;;;;;19.83;7.78;;;7.10;99.90;;;;;;5043848;28;20029;-71
2021/01/18 11:54:28;;;;;;;24.02;8.43;;;7.10;99.90;;;;;;5045766;28;20502;-71
2021/01/18 11:56:54;;;;;;;20.60;7.10;;;7.30;99.90;;;;;;5043147;28;20026;-71
2021/01/18 11:59:19;;;;;;;27.15;8.85;;;7.30;99.90;;;;;;5028589;28;20033;-71
2021/01/18 12:01:46;;;;;;;26.13;7.80;;;7.30;99.90;;;;;;5044762;28;20022;-71
2021/01/18 12:04:12;;;;;;;20.60;7.20;;;7.30;99.90;;;;;;5043762;28;20026;-71
2021/01/18 12:06:39;;;;;;;29.67;7.22;;;7.40;99.90;;;;;;5028147;28;20025;-71
2021/01/18 12:09:06;;;;;;;27.45;7.90;;;7.40;99.90;;;;;;5037262;28;20017;-72
2021/01/18 12:11:36;;;;;;;23.23;6.68;;;7.40;99.90;;;;;;5046178;28;20044;-71
2021/01/18 12:14:02;;;;;;;19.25;6.47;;;7.50;99.90;;;;;;5038698;28;20071;-71
2021/01/18 12:16:28;;;;;;;21.08;7.25;;;7.60;99.90;;;;;;5043673;28;20090;-72
2021/01/18 12:18:54;;;;;;;20.90;6.65;;;7.60;99.90;;;;;;5049530;28;20471;-72
2021/01/18 12:21:20;;;;;;;19.90;6.20;;;7.60;99.90;;;;;;5043702;28;20060;-72
2021/01/18 12:23:47;;;;;;;21.52;5.85;;;7.50;99.90;;;;;;5044466;28;20025;-72
2021/01/18 12:26:19;;;;;;;19.02;5.65;;;7.60;99.90;;;;;;5049787;28;20112;-71
2021/01/18 12:28:46;;;;;;;18.90;6.07;;;7.70;99.90;;;;;;5045346;28;20032;-72
2021/01/18 12:31:13;;;;;;;16.15;5.40;;;7.60;99.90;;;;;;5048449;28;20017;-71
2021/01/18 12:33:39;;;;;;;15.65;5.88;;;7.60;99.90;;;;;;5042713;28;20055;-72
2021/01/18 12:36:05;;;;;;;19.85;5.00;;;7.50;99.90;;;;;;5052131;28;20107;-72
2021/01/18 12:38:31;;;;;;;24.35;5.63;;;7.50;99.90;;;;;;5049384;28;20195;-72
2021/01/18 12:40:57;;;;;;;21.45;5.82;;;7.50;99.90;;;;;;5046490;28;20036;-71
2021/01/18 12:43:22;;;;;;;24.30;6.35;;;7.50;99.90;;;;;;5047279;28;20032;-72
2021/01/18 12:45:48;;;;;;;19.15;5.57;;;7.50;99.90;;;;;;5048155;28;20032;-72
2021/01/18 12:48:15;;;;;;;19.70;5.70;;;7.40;99.90;;;;;;5043215;28;20625;-72
2021/01/18 12:50:41;;;;;;;19.48;5.18;;;7.60;99.90;;;;;;5046795;28;20069;-72
2021/01/18 12:53:10;;;;;;;20.55;7.07;;;7.60;99.90;;;;;;5045453;28;20551;-72